createdAt,value
2023-01-07T00:01:13.773Z,8.20
2023-01-07T00:06:35.672Z,8.30
2023-01-07T00:09:04.743Z,8.30
2023-01-07T00:11:34.491Z,8.30
2023-01-07T00:16:30.852Z,8.20
2023-01-07T00:18:59.441Z,8.20
2023-01-07T00:21:27.919Z,8.10
2023-01-07T00:23:56.582Z,8.10
2023-01-07T00:26:25.245Z,8.20
2023-01-07T00:28:53.331Z,8.20
2023-01-07T00:31:22.786Z,8.20
2023-01-07T00:36:28.461Z,8.10
2023-01-07T00:39:00.176Z,8.10
2023-01-07T00:51:18.062Z,8.10
2023-01-07T00:56:14.488Z,8.20
2023-01-07T01:01:10.748Z,8.10
2023-01-07T01:03:38.899Z,8.10
2023-01-07T01:06:16.687Z,8.10
2023-01-07T01:08:45.409Z,8.20
2023-01-07T01:11:13.851Z,8.10
2023-01-07T01:16:16.875Z,8.10
2023-01-07T01:21:13.371Z,8.10
2023-01-07T01:26:09.951Z,8.10
2023-01-07T01:31:04.870Z,8.10
2023-01-07T01:43:25.940Z,8.10
2023-01-07T01:45:54.238Z,8.10
2023-01-07T01:48:22.446Z,8.10
2023-01-07T01:50:50.700Z,8.10
2023-01-07T01:53:29.768Z,8.10
2023-01-07T01:56:01.308Z,8.00
2023-01-07T01:58:32.790Z,8.00
2023-01-07T02:03:30.006Z,8.00
2023-01-07T02:11:08.237Z,8.00
2023-01-07T02:13:50.996Z,7.80
2023-01-07T02:21:46.809Z,8.00
2023-01-07T02:24:31.635Z,8.00
2023-01-07T02:27:13.847Z,8.00
2023-01-07T02:29:56.384Z,8.00
2023-01-07T02:33:00.735Z,8.00
2023-01-07T02:36:04.975Z,8.00
2023-01-07T02:39:10.771Z,7.90
2023-01-07T02:44:12.844Z,7.90
2023-01-07T02:49:14.403Z,7.70
2023-01-07T02:54:29.814Z,7.80
2023-01-07T02:57:22.078Z,8.00
2023-01-07T02:59:51.938Z,8.00
2023-01-07T03:02:26.307Z,8.00
2023-01-07T03:05:18.017Z,8.00
2023-01-07T03:08:00.573Z,7.90
2023-01-07T03:11:04.195Z,7.90
2023-01-07T03:13:42.677Z,7.90
2023-01-07T03:16:17.556Z,7.90
2023-01-07T03:18:52.471Z,8.00
2023-01-07T03:21:21.304Z,8.00
2023-01-07T03:23:53.029Z,8.10
2023-01-07T03:26:25.349Z,7.80
2023-01-07T03:31:22.320Z,8.00
2023-01-07T03:33:54.295Z,8.00
2023-01-07T03:36:28.343Z,7.90
2023-01-07T03:46:37.579Z,7.90
2023-01-07T04:18:31.054Z,8.00
2023-01-07T05:12:35.229Z,7.40
2023-01-07T05:15:06.628Z,7.50
2023-01-07T06:11:32.497Z,7.30
2023-01-07T06:55:49.430Z,7.30
2023-01-07T06:58:16.773Z,7.30
2023-01-07T07:27:47.373Z,7.40
2023-01-07T07:30:15.677Z,7.50
2023-01-07T07:32:43.432Z,7.50
2023-01-07T07:35:11.401Z,7.50
2023-01-07T07:40:07.005Z,7.50
2023-01-07T07:50:15.393Z,7.30
2023-01-07T07:57:57.211Z,7.50
2023-01-07T08:15:09.163Z,7.60
2023-01-07T08:20:05.109Z,7.60
2023-01-07T08:42:11.787Z,7.90
2023-01-07T09:33:43.894Z,9.00
2023-01-07T09:41:18.819Z,9.30
2023-01-07T09:43:59.399Z,9.40
2023-01-07T09:49:01.977Z,9.50
2023-01-07T09:51:40.758Z,9.60
2023-01-07T09:54:24.301Z,9.60
2023-01-07T09:59:19.136Z,9.70
2023-01-07T10:02:11.729Z,9.70
2023-01-07T10:04:50.763Z,9.80
2023-01-07T10:07:32.804Z,9.80
2023-01-07T10:10:23.366Z,9.90
2023-01-07T10:13:16.662Z,9.90
2023-01-07T10:16:23.333Z,9.90
2023-01-07T10:19:31.049Z,10.00
2023-01-07T10:22:15.381Z,10.00
2023-01-07T10:24:47.935Z,10.10
2023-01-07T10:27:18.480Z,10.10
2023-01-07T10:29:52.177Z,10.10
2023-01-07T10:32:23.005Z,10.00
2023-01-07T10:34:54.050Z,10.20
2023-01-07T10:40:08.700Z,10.20
2023-01-07T10:43:13.723Z,10.20
2023-01-07T10:45:46.829Z,10.30
2023-01-07T10:48:53.735Z,10.30
2023-01-07T10:51:48.695Z,10.60
2023-01-07T10:54:45.786Z,10.40
2023-01-07T10:57:22.863Z,10.50
2023-01-07T10:59:52.307Z,10.50
2023-01-07T11:02:22.312Z,10.50
2023-01-07T11:04:49.423Z,10.50
2023-01-07T11:07:28.794Z,10.50
2023-01-07T11:09:57.043Z,10.60
2023-01-07T11:12:48.401Z,10.60
2023-01-07T11:15:18.037Z,10.60
2023-01-07T11:17:59.358Z,10.50
2023-01-07T11:20:46.321Z,10.70
2023-01-07T11:23:34.930Z,10.70
2023-01-07T11:26:13.735Z,10.60
2023-01-07T11:28:53.127Z,10.70
2023-01-07T11:31:21.121Z,10.70
2023-01-07T11:34:03.174Z,10.70
2023-01-07T11:36:43.390Z,10.90
2023-01-07T11:39:23.723Z,10.70
2023-01-07T11:42:22.386Z,10.70
2023-01-07T11:47:18.471Z,10.60
2023-01-07T11:49:46.410Z,10.80
2023-01-07T11:52:20.073Z,11.10
2023-01-07T11:54:52.004Z,10.70
2023-01-07T11:57:26.428Z,10.70
2023-01-07T12:00:13.645Z,10.90
2023-01-07T12:05:23.742Z,11.00
2023-01-07T12:07:51.522Z,11.00
2023-01-07T12:10:34.160Z,11.10
2023-01-07T12:13:03.662Z,11.00
2023-01-07T12:15:46.975Z,10.80
2023-01-07T12:18:34.514Z,11.00
2023-01-07T12:21:04.394Z,11.10
2023-01-07T12:26:12.381Z,11.00
2023-01-07T12:28:59.735Z,11.00
2023-01-07T12:32:04.547Z,11.00
2023-01-07T12:34:49.828Z,11.00
2023-01-07T12:37:39.071Z,11.00
2023-01-07T12:40:18.664Z,11.00
2023-01-07T12:43:09.510Z,11.00
2023-01-07T12:45:49.935Z,11.00
2023-01-07T12:48:28.690Z,11.00
2023-01-07T12:50:59.212Z,11.00
2023-01-07T12:53:42.276Z,11.00
2023-01-07T12:56:18.020Z,10.50
2023-01-07T12:58:51.691Z,11.20
2023-01-07T13:01:35.828Z,11.00
2023-01-07T13:06:50.954Z,11.00
2023-01-07T13:09:23.698Z,10.90
2023-01-07T13:12:40.924Z,11.00
2023-01-07T13:15:20.861Z,11.00
2023-01-07T13:17:53.900Z,11.00
2023-01-07T13:20:46.991Z,10.90
2023-01-07T13:23:27.402Z,10.70
2023-01-07T13:26:20.399Z,10.90
2023-01-07T13:29:39.863Z,10.60
2023-01-07T13:34:57.399Z,11.30
2023-01-07T13:37:24.169Z,11.00
2023-01-07T13:39:53.681Z,10.70
2023-01-07T13:42:41.225Z,10.70
2023-01-07T13:45:13.895Z,10.90
2023-01-07T13:48:05.300Z,10.80
2023-01-07T13:50:39.032Z,10.80
2023-01-07T13:53:15.211Z,10.70
2023-01-07T13:55:47.212Z,10.60
2023-01-07T13:58:31.994Z,10.50
2023-01-07T14:03:31.486Z,10.60
2023-01-07T14:06:20.109Z,10.70
2023-01-07T14:13:57.009Z,10.70
2023-01-07T14:16:30.006Z,10.60
2023-01-07T14:19:11.418Z,10.70
2023-01-07T14:22:06.150Z,10.70
2023-01-07T14:27:16.730Z,10.40
2023-01-07T14:29:49.050Z,10.70
2023-01-07T14:32:32.330Z,10.30
2023-01-07T14:35:08.020Z,10.40
2023-01-07T14:37:40.508Z,11.10
2023-01-07T14:40:25.913Z,10.40
2023-01-07T14:42:56.953Z,10.40
2023-01-07T14:45:42.215Z,10.30
2023-01-07T14:53:35.361Z,10.30
2023-01-07T14:56:31.812Z,10.40
2023-01-07T14:59:38.141Z,10.00
2023-01-07T15:02:32.975Z,10.00
2023-01-07T15:07:32.331Z,10.10
2023-01-07T15:10:45.483Z,10.10
2023-01-07T15:13:36.264Z,10.10
2023-01-07T15:16:07.446Z,10.00
2023-01-07T15:18:54.352Z,10.10
2023-01-07T15:21:33.146Z,9.90
2023-01-07T15:24:07.809Z,9.80
2023-01-07T15:27:13.425Z,9.80
2023-01-07T15:30:00.842Z,9.50
2023-01-07T15:32:40.654Z,10.00
2023-01-07T15:35:17.496Z,9.50
2023-01-07T15:37:49.302Z,9.20
2023-01-07T15:40:23.548Z,9.40
2023-01-07T15:42:55.071Z,9.30
2023-01-07T15:45:27.761Z,9.20
2023-01-07T15:48:10.863Z,9.20
2023-01-07T15:50:39.403Z,8.80
2023-01-07T15:53:12.270Z,9.00
2023-01-07T15:56:01.117Z,8.90
2023-01-07T15:58:48.872Z,8.80
2023-01-07T16:01:23.619Z,8.70
2023-01-07T16:03:56.548Z,8.70
2023-01-07T16:06:32.159Z,8.60
2023-01-07T16:08:59.563Z,8.30
2023-01-07T16:11:29.562Z,8.20
2023-01-07T16:14:04.423Z,8.40
2023-01-07T16:16:32.278Z,8.30
2023-01-07T16:19:01.136Z,8.20
2023-01-07T16:21:35.189Z,8.30
2023-01-07T16:26:43.578Z,8.10
2023-01-07T16:29:17.232Z,8.00
2023-01-07T16:34:23.765Z,7.90
2023-01-07T16:36:58.256Z,7.80
2023-01-07T16:39:35.011Z,7.80
2023-01-07T16:44:55.337Z,7.70
2023-01-07T16:47:24.907Z,7.60
2023-01-07T16:50:17.548Z,7.60
2023-01-07T16:52:57.418Z,7.50
2023-01-07T16:56:05.649Z,7.20
2023-01-07T16:58:52.996Z,7.30
2023-01-07T17:01:30.549Z,7.20
2023-01-07T17:04:07.384Z,7.20
2023-01-07T17:06:42.711Z,7.10
2023-01-07T17:09:23.095Z,7.00
2023-01-07T17:11:51.883Z,7.00
2023-01-07T17:14:33.748Z,6.90
2023-01-07T17:17:08.977Z,6.80
2023-01-07T17:19:41.481Z,6.80
2023-01-07T17:22:31.221Z,6.60
2023-01-07T17:25:09.535Z,6.70
2023-01-07T17:27:43.260Z,6.60
2023-01-07T17:30:17.172Z,6.60
2023-01-07T17:35:20.549Z,6.50
2023-01-07T17:40:15.558Z,6.30
2023-01-07T17:52:54.505Z,6.10
2023-01-07T17:55:27.802Z,6.10
2023-01-07T18:00:25.260Z,5.90
2023-01-07T18:05:22.084Z,5.90
2023-01-07T18:07:50.598Z,5.90
2023-01-07T18:10:21.670Z,6.00
2023-01-07T19:04:27.216Z,5.30
2023-01-07T19:29:01.596Z,5.00
2023-01-07T19:41:19.560Z,4.80
2023-01-07T19:43:47.232Z,4.70
2023-01-07T19:46:15.470Z,4.70
2023-01-07T19:51:11.122Z,4.60
2023-01-07T19:53:38.841Z,4.60
2023-01-07T19:56:08.932Z,4.60
2023-01-07T20:01:07.555Z,4.60
2023-01-07T20:03:35.429Z,4.50
2023-01-07T20:06:07.782Z,4.50
2023-01-07T20:13:30.957Z,4.40
2023-01-07T20:16:03.788Z,4.40
2023-01-07T20:20:59.836Z,4.30
2023-01-07T20:23:27.582Z,4.30
2023-01-07T20:40:42.299Z,4.10
2023-01-07T20:43:09.913Z,4.10
2023-01-07T21:10:18.034Z,3.80
2023-01-07T21:12:47.870Z,3.70
2023-01-07T21:15:16.182Z,3.70
2023-01-07T21:20:13.465Z,3.40
2023-01-07T21:25:10.267Z,3.20
2023-01-07T21:27:40.706Z,3.00
2023-01-07T21:30:08.960Z,3.00
2023-01-07T22:31:37.245Z,3.00
2023-01-07T22:34:05.975Z,2.90
2023-01-07T22:36:59.598Z,2.90
2023-01-07T22:39:34.269Z,2.80
2023-01-07T22:42:06.930Z,2.70
2023-01-07T22:44:40.679Z,2.80
2023-01-07T22:47:09.808Z,2.80
2023-01-07T22:52:04.883Z,2.80
2023-01-07T23:14:24.291Z,2.70
2023-01-07T23:16:55.009Z,2.70
2023-01-07T23:19:22.523Z,2.60
2023-01-07T23:21:51.845Z,2.40
2023-01-07T23:26:47.926Z,2.20
2023-01-07T23:36:37.747Z,2.20
2023-01-07T23:39:05.942Z,2.20
2023-01-07T23:51:22.230Z,2.20
2023-01-07T23:56:20.508Z,2.10
